createdAt,value
2018-07-30T00:00:48.786Z,1001.29
2018-07-30T00:01:48.765Z,1001.34
2018-07-30T00:02:48.737Z,1001.31
2018-07-30T00:03:48.715Z,1001.32
2018-07-30T00:04:48.730Z,1001.27
2018-07-30T00:05:48.675Z,1001.30
2018-07-30T00:06:48.655Z,1001.31
2018-07-30T00:07:48.623Z,1001.33
2018-07-30T00:08:48.605Z,1001.38
2018-07-30T00:09:48.577Z,1001.41
2018-07-30T00:10:48.553Z,1001.44
2018-07-30T00:11:48.539Z,1001.40
2018-07-30T00:12:48.514Z,1001.40
2018-07-30T00:13:48.491Z,1001.36
2018-07-30T00:14:48.471Z,1001.35
2018-07-30T00:15:48.441Z,1001.36
2018-07-30T00:16:48.420Z,1001.38
2018-07-30T00:17:48.399Z,1001.32
2018-07-30T00:18:48.379Z,1001.31
2018-07-30T00:19:48.356Z,1001.29
2018-07-30T00:20:48.333Z,1001.27
2018-07-30T00:21:48.304Z,1001.26
2018-07-30T00:22:48.279Z,1001.24
2018-07-30T00:23:48.267Z,1001.30
2018-07-30T00:24:48.236Z,1001.30
2018-07-30T00:25:48.214Z,1001.28
2018-07-30T00:26:48.194Z,1001.27
2018-07-30T00:27:48.171Z,1001.28
2018-07-30T00:28:48.152Z,1001.25
2018-07-30T00:29:48.119Z,1001.28
2018-07-30T00:30:48.105Z,1001.30
2018-07-30T00:31:48.078Z,1001.29
2018-07-30T00:32:48.050Z,1001.34
2018-07-30T00:33:48.037Z,1001.33
2018-07-30T00:34:48.010Z,1001.34
2018-07-30T00:35:47.993Z,1001.35
2018-07-30T00:36:47.966Z,1001.35
2018-07-30T00:37:47.948Z,1001.29
2018-07-30T00:38:47.923Z,1001.33
2018-07-30T00:39:47.898Z,1001.33
2018-07-30T00:40:47.876Z,1001.31
2018-07-30T00:41:47.846Z,1001.31
2018-07-30T00:42:47.832Z,1001.30
2018-07-30T00:43:47.803Z,1001.33
2018-07-30T00:44:47.779Z,1001.33
2018-07-30T00:45:47.763Z,1001.37
2018-07-30T00:46:47.734Z,1001.35
2018-07-30T00:47:47.714Z,1001.39
2018-07-30T00:48:47.695Z,1001.36
2018-07-30T00:49:47.662Z,1001.35
2018-07-30T00:50:47.645Z,1001.38
2018-07-30T00:51:47.626Z,1001.36
2018-07-30T00:52:47.598Z,1001.39
2018-07-30T00:53:47.577Z,1001.38
2018-07-30T00:54:47.551Z,1001.36
2018-07-30T00:55:47.532Z,1001.39
2018-07-30T00:56:47.512Z,1001.38
2018-07-30T00:57:47.487Z,1001.36
2018-07-30T00:58:47.461Z,1001.36
2018-07-30T00:59:47.441Z,1001.34
2018-07-30T01:00:47.419Z,1001.39
2018-07-30T01:01:47.387Z,1001.34
2018-07-30T01:02:47.371Z,1001.32
2018-07-30T01:03:47.344Z,1001.31
2018-07-30T01:04:47.318Z,1001.31
2018-07-30T01:05:47.304Z,1001.31
2018-07-30T01:06:47.271Z,1001.33
2018-07-30T01:07:47.255Z,1001.31
2018-07-30T01:08:47.234Z,1001.32
2018-07-30T01:09:47.206Z,1001.32
2018-07-30T01:10:47.189Z,1001.30
2018-07-30T01:11:47.158Z,1001.34
2018-07-30T01:12:47.140Z,1001.33
2018-07-30T01:13:47.114Z,1001.28
2018-07-30T01:14:47.097Z,1001.31
2018-07-30T01:15:47.072Z,1001.34
2018-07-30T01:16:47.049Z,1001.31
2018-07-30T01:17:47.024Z,1001.30
2018-07-30T01:18:47.001Z,1001.29
2018-07-30T01:19:46.984Z,1001.28
2018-07-30T01:20:46.954Z,1001.31
2018-07-30T01:21:46.935Z,1001.32
2018-07-30T01:22:46.914Z,1001.34
2018-07-30T01:23:46.891Z,1001.33
2018-07-30T01:24:46.867Z,1001.34
2018-07-30T01:25:46.836Z,1001.34
2018-07-30T01:26:46.815Z,1001.35
2018-07-30T01:27:46.799Z,1001.36
2018-07-30T01:28:46.781Z,1001.38
2018-07-30T01:29:46.746Z,1001.34
2018-07-30T01:30:46.729Z,1001.39
2018-07-30T01:31:46.698Z,1001.39
2018-07-30T01:32:46.678Z,1001.40
2018-07-30T01:33:46.662Z,1001.36
2018-07-30T01:34:46.630Z,1001.44
2018-07-30T01:35:46.617Z,1001.37
2018-07-30T01:36:46.590Z,1001.37
2018-07-30T01:37:46.564Z,1001.39
2018-07-30T01:38:46.541Z,1001.33
2018-07-30T01:39:46.523Z,1001.33
2018-07-30T01:40:46.497Z,1001.32
2018-07-30T01:41:46.472Z,1001.32
2018-07-30T01:42:46.458Z,1001.39
2018-07-30T01:43:46.426Z,1001.39
2018-07-30T01:44:46.403Z,1001.39
2018-07-30T01:45:46.382Z,1001.41
2018-07-30T01:46:46.357Z,1001.42
2018-07-30T01:47:46.343Z,1001.44
2018-07-30T01:48:46.309Z,1001.40
2018-07-30T01:49:46.294Z,1001.41
2018-07-30T01:50:46.271Z,1001.44
2018-07-30T01:51:46.242Z,1001.39
2018-07-30T01:52:46.227Z,1001.39
2018-07-30T01:53:46.193Z,1001.41
2018-07-30T01:54:46.181Z,1001.42
2018-07-30T01:55:46.146Z,1001.38
2018-07-30T01:56:46.127Z,1001.43
2018-07-30T01:57:46.106Z,1001.37
2018-07-30T01:58:46.084Z,1001.45
2018-07-30T01:59:46.064Z,1001.44
2018-07-30T02:00:46.036Z,1001.48
2018-07-30T02:01:46.011Z,1001.48
2018-07-30T02:02:45.999Z,1001.48
2018-07-30T02:03:45.963Z,1001.49
2018-07-30T02:04:45.948Z,1001.50
2018-07-30T02:05:45.916Z,1001.48
2018-07-30T02:06:45.893Z,1001.45
2018-07-30T02:07:45.923Z,1001.47
2018-07-30T02:08:45.847Z,1001.43
2018-07-30T02:09:45.839Z,1001.44
2018-07-30T02:10:45.800Z,1001.45
2018-07-30T02:11:45.781Z,1001.44
2018-07-30T02:12:45.754Z,1001.48
2018-07-30T02:13:45.739Z,1001.47
2018-07-30T02:14:45.711Z,1001.49
2018-07-30T02:15:45.690Z,1001.47
2018-07-30T02:16:45.668Z,1001.48
2018-07-30T02:17:45.644Z,1001.48
2018-07-30T02:18:45.620Z,1001.52
2018-07-30T02:19:45.595Z,1001.55
2018-07-30T02:20:45.569Z,1001.51
2018-07-30T02:21:45.553Z,1001.54
2018-07-30T02:22:45.525Z,1001.52
2018-07-30T02:23:45.508Z,1001.54
2018-07-30T02:24:45.486Z,1001.55
2018-07-30T02:25:45.452Z,1001.52
2018-07-30T02:26:45.437Z,1001.52
2018-07-30T02:27:45.414Z,1001.49
2018-07-30T02:28:45.394Z,1001.48
2018-07-30T02:29:45.359Z,1001.49
2018-07-30T02:30:45.347Z,1001.50
2018-07-30T02:31:45.315Z,1001.49
2018-07-30T02:32:45.290Z,1001.49
2018-07-30T02:33:45.271Z,1001.51
2018-07-30T02:34:45.246Z,1001.51
2018-07-30T02:35:45.227Z,1001.51
2018-07-30T02:36:45.209Z,1001.51
2018-07-30T02:37:45.174Z,1001.48
2018-07-30T02:38:45.155Z,1001.54
2018-07-30T02:39:45.130Z,1001.56
2018-07-30T02:40:45.103Z,1001.54
2018-07-30T02:41:45.091Z,1001.59
2018-07-30T02:42:45.058Z,1001.57
2018-07-30T02:43:45.045Z,1001.55
2018-07-30T02:44:45.016Z,1001.59
2018-07-30T02:45:45.008Z,1001.63
2018-07-30T02:46:44.974Z,1001.60
2018-07-30T02:47:44.942Z,1001.57
2018-07-30T02:48:44.921Z,1001.57
2018-07-30T02:49:44.902Z,1001.53
2018-07-30T02:50:44.877Z,1001.55
2018-07-30T02:51:44.852Z,1001.58
2018-07-30T02:52:44.826Z,1001.62
2018-07-30T02:53:44.809Z,1001.59
2018-07-30T02:54:44.780Z,1001.59
2018-07-30T02:55:44.761Z,1001.63
2018-07-30T02:56:44.738Z,1001.63
2018-07-30T02:57:44.824Z,1001.61
2018-07-30T02:58:44.693Z,1001.63
2018-07-30T02:59:44.661Z,1001.64
2018-07-30T03:00:44.641Z,1001.64
2018-07-30T03:01:44.634Z,1001.64
2018-07-30T03:02:44.594Z,1001.64
2018-07-30T03:03:44.577Z,1001.65
2018-07-30T03:04:44.548Z,1001.64
2018-07-30T03:05:44.522Z,1001.65
2018-07-30T03:06:44.499Z,1001.63
2018-07-30T03:07:44.481Z,1001.62
2018-07-30T03:08:44.456Z,1001.60
2018-07-30T03:09:44.432Z,1001.60
2018-07-30T03:10:44.409Z,1001.63
2018-07-30T03:11:44.384Z,1001.62
2018-07-30T03:12:44.362Z,1001.62
2018-07-30T03:13:44.336Z,1001.61
2018-07-30T03:14:44.310Z,1001.61
2018-07-30T03:15:44.290Z,1001.64
2018-07-30T03:16:44.264Z,1001.62
2018-07-30T03:17:44.246Z,1001.62
2018-07-30T03:18:44.233Z,1001.69
2018-07-30T03:19:44.198Z,1001.64
2018-07-30T03:20:44.179Z,1001.65
2018-07-30T03:21:44.155Z,1001.68
2018-07-30T03:22:44.130Z,1001.66
2018-07-30T03:23:44.103Z,1001.65
2018-07-30T03:24:44.082Z,1001.65
2018-07-30T03:25:44.055Z,1001.69
2018-07-30T03:26:44.033Z,1001.66
2018-07-30T03:27:44.013Z,1001.68
2018-07-30T03:28:44.024Z,1001.70
2018-07-30T03:29:43.965Z,1001.66
2018-07-30T03:30:43.945Z,1001.67
2018-07-30T03:31:43.959Z,1001.70
2018-07-30T03:32:43.896Z,1001.71
2018-07-30T03:33:43.865Z,1001.73
2018-07-30T03:34:43.843Z,1001.76
2018-07-30T03:35:43.824Z,1001.82
2018-07-30T03:36:43.796Z,1001.83
2018-07-30T03:37:43.778Z,1001.85
2018-07-30T03:38:43.752Z,1001.84
2018-07-30T03:39:43.729Z,1001.85
2018-07-30T03:40:43.703Z,1001.84
2018-07-30T03:41:43.690Z,1001.81
2018-07-30T03:42:43.660Z,1001.78
2018-07-30T03:43:43.632Z,1001.83
2018-07-30T03:44:43.611Z,1001.85
2018-07-30T03:45:43.585Z,1001.83
2018-07-30T03:46:43.561Z,1001.85
2018-07-30T03:47:43.549Z,1001.83
2018-07-30T03:48:43.519Z,1001.86
2018-07-30T03:49:43.491Z,1001.88
2018-07-30T03:50:43.474Z,1001.90
2018-07-30T03:51:43.449Z,1001.93
2018-07-30T03:52:43.426Z,1001.92
2018-07-30T03:53:43.399Z,1001.95
2018-07-30T03:54:43.381Z,1001.91
2018-07-30T03:55:43.362Z,1001.92
2018-07-30T03:56:43.326Z,1001.93
2018-07-30T03:57:43.310Z,1001.95
2018-07-30T03:58:43.287Z,1001.93
2018-07-30T03:59:43.256Z,1001.90
2018-07-30T04:00:43.237Z,1001.94
2018-07-30T04:01:43.206Z,1001.95
2018-07-30T04:02:43.188Z,1001.95
2018-07-30T04:03:43.170Z,1001.95
2018-07-30T04:04:43.138Z,1001.97
2018-07-30T04:05:43.121Z,1001.95
2018-07-30T04:06:43.093Z,1001.97
2018-07-30T04:07:43.074Z,1001.96
2018-07-30T04:08:43.043Z,1001.96
2018-07-30T04:09:43.019Z,1002.00
2018-07-30T04:10:42.996Z,1002.03
2018-07-30T04:11:42.982Z,1002.03
2018-07-30T04:12:42.958Z,1001.99
2018-07-30T04:13:42.928Z,1002.00
2018-07-30T04:14:42.904Z,1002.00
2018-07-30T04:15:42.878Z,1002.03
2018-07-30T04:16:42.856Z,1002.05
2018-07-30T04:17:42.831Z,1002.03
2018-07-30T04:18:42.809Z,1002.04
2018-07-30T04:19:42.783Z,1002.02
2018-07-30T04:20:42.764Z,1002.06
2018-07-30T04:21:42.738Z,1002.03
2018-07-30T04:22:42.722Z,1002.07
2018-07-30T04:23:42.707Z,1002.07
2018-07-30T04:24:42.714Z,1002.08
2018-07-30T04:25:42.644Z,1002.06
2018-07-30T04:26:42.616Z,1002.09
2018-07-30T04:27:42.599Z,1002.09
2018-07-30T04:28:42.575Z,1002.09
2018-07-30T04:29:42.546Z,1002.07
2018-07-30T04:30:42.565Z,1002.05
2018-07-30T04:31:42.496Z,1002.02
2018-07-30T04:32:42.474Z,1002.08
2018-07-30T04:33:42.454Z,1002.03
2018-07-30T04:34:42.429Z,1002.06
2018-07-30T04:35:42.407Z,1002.03
2018-07-30T04:36:42.379Z,1002.03
2018-07-30T04:37:42.357Z,1002.03
2018-07-30T04:38:42.337Z,1002.07
2018-07-30T04:39:42.311Z,1002.07
2018-07-30T04:40:42.288Z,1002.09
2018-07-30T04:41:42.261Z,1002.06
2018-07-30T04:42:42.240Z,1002.04
2018-07-30T04:43:42.231Z,1002.07
2018-07-30T04:44:42.191Z,1002.07
2018-07-30T04:45:42.171Z,1002.08
2018-07-30T04:46:42.145Z,1002.06
2018-07-30T04:47:42.124Z,1002.07
2018-07-30T04:48:42.101Z,1002.05
2018-07-30T04:49:42.074Z,1002.06
2018-07-30T04:50:42.053Z,1002.09
2018-07-30T04:51:42.027Z,1002.10
2018-07-30T04:52:41.999Z,1002.07
2018-07-30T04:53:41.985Z,1002.12
2018-07-30T04:54:41.954Z,1002.09
2018-07-30T04:55:41.927Z,1002.11
2018-07-30T04:56:41.910Z,1002.12
2018-07-30T04:57:41.883Z,1002.11
2018-07-30T04:58:41.864Z,1002.11
2018-07-30T04:59:41.841Z,1002.13
2018-07-30T05:00:41.809Z,1002.13
2018-07-30T05:01:41.793Z,1002.14
2018-07-30T05:02:41.773Z,1002.18
2018-07-30T05:03:41.765Z,1002.21
2018-07-30T05:04:41.724Z,1002.20
2018-07-30T05:05:41.741Z,1002.22
2018-07-30T05:06:41.678Z,1002.21
2018-07-30T05:07:41.645Z,1002.19
2018-07-30T05:08:41.628Z,1002.18
2018-07-30T05:09:41.603Z,1002.17
2018-07-30T05:10:41.575Z,1002.18
2018-07-30T05:11:41.557Z,1002.17
2018-07-30T05:12:41.531Z,1002.18
2018-07-30T05:13:41.503Z,1002.12
2018-07-30T05:14:41.489Z,1002.17
2018-07-30T05:15:41.460Z,1002.13
2018-07-30T05:16:41.433Z,1002.09
2018-07-30T05:17:41.413Z,1002.13
2018-07-30T05:18:41.390Z,1002.11
2018-07-30T05:19:41.393Z,1002.13
2018-07-30T05:20:41.347Z,1002.14
2018-07-30T05:21:41.321Z,1002.14
2018-07-30T05:22:41.291Z,1002.18
2018-07-30T05:23:41.274Z,1002.18
2018-07-30T05:24:41.243Z,1002.20
2018-07-30T05:25:41.265Z,1002.17
2018-07-30T05:26:41.202Z,1002.18
2018-07-30T05:27:41.174Z,1002.19
2018-07-30T05:28:41.160Z,1002.19
2018-07-30T05:29:41.127Z,1002.21
2018-07-30T05:30:41.104Z,1002.22
2018-07-30T05:31:41.102Z,1002.25
2018-07-30T05:32:41.062Z,1002.27
2018-07-30T05:33:41.035Z,1002.25
2018-07-30T05:34:41.017Z,1002.25
2018-07-30T05:35:40.989Z,1002.24
2018-07-30T05:36:40.963Z,1002.25
2018-07-30T05:37:40.947Z,1002.24
2018-07-30T05:38:40.921Z,1002.25
2018-07-30T05:39:40.897Z,1002.27
2018-07-30T05:40:40.879Z,1002.30
2018-07-30T05:41:40.845Z,1002.31
2018-07-30T05:42:40.835Z,1002.31
2018-07-30T05:43:40.799Z,1002.32
2018-07-30T05:44:40.775Z,1002.31
2018-07-30T05:45:40.759Z,1002.30
2018-07-30T05:46:40.735Z,1002.32
2018-07-30T05:47:40.706Z,1002.34
2018-07-30T05:48:40.688Z,1002.34
2018-07-30T05:49:40.658Z,1002.36
2018-07-30T05:50:40.637Z,1002.33
2018-07-30T05:51:40.620Z,1002.33
2018-07-30T05:52:40.587Z,1002.35
2018-07-30T05:53:40.573Z,1002.34
2018-07-30T05:54:40.544Z,1002.34
2018-07-30T05:55:40.519Z,1002.38
2018-07-30T05:56:40.493Z,1002.38
2018-07-30T05:57:40.477Z,1002.37
2018-07-30T05:58:40.449Z,1002.38
2018-07-30T05:59:40.486Z,1002.36
2018-07-30T06:00:40.403Z,1002.35
2018-07-30T06:01:40.379Z,1002.34
2018-07-30T06:02:40.356Z,1002.37
2018-07-30T06:03:40.338Z,1002.37
2018-07-30T06:04:40.307Z,1002.37
2018-07-30T06:05:40.291Z,1002.38
2018-07-30T06:06:40.272Z,1002.36
2018-07-30T06:07:40.239Z,1002.35
2018-07-30T06:08:40.221Z,1002.38
2018-07-30T06:09:40.200Z,1002.37
2018-07-30T06:10:40.175Z,1002.34
2018-07-30T06:11:40.145Z,1002.40
2018-07-30T06:12:40.132Z,1002.38
2018-07-30T06:13:40.102Z,1002.32
2018-07-30T06:14:40.088Z,1002.35
2018-07-30T06:15:40.055Z,1002.32
2018-07-30T06:16:40.036Z,1002.33
2018-07-30T06:17:40.016Z,1002.35
2018-07-30T06:18:39.984Z,1002.32
2018-07-30T06:19:39.966Z,1002.34
2018-07-30T06:20:39.953Z,1002.35
2018-07-30T06:21:39.912Z,1002.38
2018-07-30T06:22:39.903Z,1002.36
2018-07-30T06:23:39.915Z,1002.38
2018-07-30T06:24:39.842Z,1002.42
2018-07-30T06:25:39.834Z,1002.44
2018-07-30T06:26:39.804Z,1002.44
2018-07-30T06:27:39.782Z,1002.45
2018-07-30T06:28:39.761Z,1002.44
2018-07-30T06:29:39.738Z,1002.45
2018-07-30T06:30:39.732Z,1002.46
2018-07-30T06:31:39.713Z,1002.48
2018-07-30T06:32:39.662Z,1002.46
2018-07-30T06:33:39.641Z,1002.47
2018-07-30T06:34:39.614Z,1002.49
2018-07-30T06:35:39.599Z,1002.45
2018-07-30T06:36:39.574Z,1002.47
2018-07-30T06:37:39.549Z,1002.47
2018-07-30T06:38:39.531Z,1002.44
2018-07-30T06:39:39.500Z,1002.43
2018-07-30T06:40:39.484Z,1002.47
2018-07-30T06:41:39.459Z,1002.47
2018-07-30T06:42:39.432Z,1002.46
2018-07-30T06:43:39.412Z,1002.44
2018-07-30T06:44:39.388Z,1002.47
2018-07-30T06:45:39.360Z,1002.49
2018-07-30T06:46:39.347Z,1002.49
2018-07-30T06:47:39.324Z,1002.53
2018-07-30T06:48:39.304Z,1002.53
2018-07-30T06:49:39.273Z,1002.53
2018-07-30T06:50:39.259Z,1002.53
2018-07-30T06:51:39.222Z,1002.54
2018-07-30T06:52:39.210Z,1002.53
2018-07-30T06:53:39.180Z,1002.51
2018-07-30T06:54:39.160Z,1002.54
2018-07-30T06:55:39.142Z,1002.51
2018-07-30T06:56:39.109Z,1002.52
2018-07-30T06:57:39.095Z,1002.49
2018-07-30T06:58:39.065Z,1002.51
2018-07-30T06:59:39.099Z,1002.49
2018-07-30T07:00:39.027Z,1002.51
2018-07-30T07:01:39.001Z,1002.47
2018-07-30T07:02:38.983Z,1002.51
2018-07-30T07:03:38.958Z,1002.50
2018-07-30T07:04:38.933Z,1002.52
2018-07-30T07:05:38.906Z,1002.53
2018-07-30T07:06:38.884Z,1002.54
2018-07-30T07:07:38.871Z,1002.57
2018-07-30T07:08:38.840Z,1002.59
2018-07-30T07:09:38.829Z,1002.58
2018-07-30T07:10:38.803Z,1002.59
2018-07-30T07:11:38.776Z,1002.65
2018-07-30T07:12:38.757Z,1002.67
2018-07-30T07:13:38.728Z,1002.65
2018-07-30T07:14:38.722Z,1002.71
2018-07-30T07:15:38.684Z,1002.69
2018-07-30T07:16:38.749Z,1002.70
2018-07-30T07:17:38.642Z,1002.72
2018-07-30T07:18:38.617Z,1002.73
2018-07-30T07:19:38.595Z,1002.72
2018-07-30T07:20:38.591Z,1002.73
2018-07-30T07:21:38.586Z,1002.72
2018-07-30T07:22:38.528Z,1002.75
2018-07-30T07:23:38.508Z,1002.74
2018-07-30T07:24:38.486Z,1002.77
2018-07-30T07:25:38.457Z,1002.74
2018-07-30T07:26:38.441Z,1002.76
2018-07-30T07:27:38.414Z,1002.72
2018-07-30T07:28:38.391Z,1002.72
2018-07-30T07:29:38.379Z,1002.69
2018-07-30T07:30:38.356Z,1002.72
2018-07-30T07:31:38.326Z,1002.75
2018-07-30T07:32:38.302Z,1002.76
2018-07-30T07:33:38.285Z,1002.79
2018-07-30T07:34:38.262Z,1002.78
2018-07-30T07:35:38.236Z,1002.74
2018-07-30T07:36:38.218Z,1002.76
2018-07-30T07:37:38.190Z,1002.74
2018-07-30T07:38:38.168Z,1002.75
2018-07-30T07:39:38.153Z,1002.76
2018-07-30T07:40:38.130Z,1002.76
2018-07-30T07:41:38.104Z,1002.79
2018-07-30T07:42:38.087Z,1002.74
2018-07-30T07:43:38.058Z,1002.77
2018-07-30T07:44:38.036Z,1002.74
2018-07-30T07:45:38.017Z,1002.73
2018-07-30T07:46:37.999Z,1002.76
2018-07-30T07:47:37.966Z,1002.70
2018-07-30T07:48:37.975Z,1002.75
2018-07-30T07:49:37.921Z,1002.70
2018-07-30T07:50:37.940Z,1002.74
2018-07-30T07:51:37.886Z,1002.76
2018-07-30T07:52:37.869Z,1002.73
2018-07-30T07:53:37.840Z,1002.72
2018-07-30T07:54:37.811Z,1002.71
2018-07-30T07:55:37.802Z,1002.67
2018-07-30T07:56:37.770Z,1002.64
2018-07-30T07:57:37.763Z,1002.66
2018-07-30T07:58:37.767Z,1002.65
2018-07-30T07:59:37.702Z,1002.64
2018-07-30T08:00:37.686Z,1002.66
2018-07-30T08:01:37.656Z,1002.70
2018-07-30T08:02:37.639Z,1002.69
2018-07-30T08:03:37.619Z,1002.72
2018-07-30T08:04:37.597Z,1002.69
2018-07-30T08:05:37.577Z,1002.71
2018-07-30T08:06:37.573Z,1002.72
2018-07-30T08:07:37.585Z,1002.72
2018-07-30T08:08:37.507Z,1002.73
2018-07-30T08:09:37.525Z,1002.70
2018-07-30T08:10:37.459Z,1002.72
2018-07-30T08:11:37.443Z,1002.66
2018-07-30T08:12:37.421Z,1002.66
2018-07-30T08:13:37.391Z,1002.66
2018-07-30T08:14:37.374Z,1002.63
2018-07-30T08:15:37.350Z,1002.65
2018-07-30T08:16:37.325Z,1002.70
2018-07-30T08:17:37.312Z,1002.63
2018-07-30T08:18:37.281Z,1002.63
2018-07-30T08:19:37.268Z,1002.61
2018-07-30T08:20:37.243Z,1002.63
2018-07-30T08:21:37.217Z,1002.63
2018-07-30T08:22:37.202Z,1002.59
2018-07-30T08:23:37.172Z,1002.63
2018-07-30T08:24:37.152Z,1002.59
2018-07-30T08:25:37.132Z,1002.61
2018-07-30T08:26:37.104Z,1002.57
2018-07-30T08:27:37.090Z,1002.54
2018-07-30T08:28:37.059Z,1002.59
2018-07-30T08:29:37.047Z,1002.60
2018-07-30T08:30:37.026Z,1002.63
2018-07-30T08:31:36.998Z,1002.67
2018-07-30T08:32:37.005Z,1002.67
2018-07-30T08:33:36.949Z,1002.63
2018-07-30T08:34:36.938Z,1002.63
2018-07-30T08:35:36.907Z,1002.64
2018-07-30T08:36:36.894Z,1002.64
2018-07-30T08:37:36.868Z,1002.63
2018-07-30T08:38:36.842Z,1002.64
2018-07-30T08:39:36.822Z,1002.58
2018-07-30T08:40:36.804Z,1002.61
2018-07-30T08:41:36.780Z,1002.60
2018-07-30T08:42:36.756Z,1002.61
2018-07-30T08:43:36.747Z,1002.65
2018-07-30T08:44:36.711Z,1002.70
2018-07-30T08:45:36.733Z,1002.69
2018-07-30T08:46:36.671Z,1002.68
2018-07-30T08:47:36.651Z,1002.67
2018-07-30T08:48:36.628Z,1002.74
2018-07-30T08:49:36.607Z,1002.75
2018-07-30T08:50:36.585Z,1002.73
2018-07-30T08:51:36.563Z,1002.78
2018-07-30T08:52:36.543Z,1002.77
2018-07-30T08:53:36.521Z,1002.80
2018-07-30T08:54:36.493Z,1002.75
2018-07-30T08:55:36.471Z,1002.79
2018-07-30T08:56:36.458Z,1002.79
2018-07-30T08:57:36.436Z,1002.79
2018-07-30T08:58:36.405Z,1002.81
2018-07-30T08:59:36.391Z,1002.87
2018-07-30T09:00:36.360Z,1002.88
2018-07-30T09:01:36.346Z,1002.85
2018-07-30T09:02:36.333Z,1002.91
2018-07-30T09:03:36.293Z,1002.89
2018-07-30T09:04:36.283Z,1002.87
2018-07-30T09:05:36.254Z,1002.90
2018-07-30T09:06:36.240Z,1002.82
2018-07-30T09:07:36.207Z,1002.83
2018-07-30T09:08:36.192Z,1002.82
2018-07-30T09:09:36.164Z,1002.85
2018-07-30T09:10:36.139Z,1002.82
2018-07-30T09:11:36.129Z,1002.86
2018-07-30T09:12:36.163Z,1002.79
2018-07-30T09:13:36.083Z,1002.80
2018-07-30T09:14:36.056Z,1002.88
2018-07-30T09:15:36.037Z,1002.79
2018-07-30T09:16:36.017Z,1002.79
2018-07-30T09:17:35.987Z,1002.82
2018-07-30T09:18:35.978Z,1002.86
2018-07-30T09:19:35.948Z,1002.82
2018-07-30T09:20:35.922Z,1002.86
2018-07-30T09:21:35.911Z,1002.82
2018-07-30T09:22:35.879Z,1002.82
2018-07-30T09:23:35.866Z,1002.85
2018-07-30T09:24:35.833Z,1002.85
2018-07-30T09:25:35.824Z,1002.79
2018-07-30T09:26:35.799Z,1002.82
2018-07-30T09:27:35.771Z,1002.76
2018-07-30T09:28:35.757Z,1002.80
2018-07-30T09:29:35.729Z,1002.81
2018-07-30T09:30:35.709Z,1002.74
2018-07-30T09:31:35.691Z,1002.75
2018-07-30T09:32:35.682Z,1002.80
2018-07-30T09:33:35.647Z,1002.80
2018-07-30T09:34:35.626Z,1002.81
2018-07-30T09:35:35.594Z,1002.78
2018-07-30T09:36:35.599Z,1002.76
2018-07-30T09:37:35.549Z,1002.76
2018-07-30T09:38:35.620Z,1002.75
2018-07-30T09:39:35.536Z,1002.72
2018-07-30T09:40:35.488Z,1002.74
2018-07-30T09:41:35.465Z,1002.75
2018-07-30T09:42:35.447Z,1002.68
2018-07-30T09:43:35.429Z,1002.70
2018-07-30T09:44:35.415Z,1002.71
2018-07-30T09:45:35.378Z,1002.72
2018-07-30T09:46:35.371Z,1002.69
2018-07-30T09:47:35.339Z,1002.75
2018-07-30T09:48:35.357Z,1002.62
2018-07-30T09:49:35.300Z,1002.71
2018-07-30T09:50:35.337Z,1002.62
2018-07-30T09:51:35.250Z,1002.69
2018-07-30T09:52:35.230Z,1002.67
2018-07-30T09:53:35.204Z,1002.69
2018-07-30T09:54:35.180Z,1002.67
2018-07-30T09:55:35.166Z,1002.74
2018-07-30T09:56:35.147Z,1002.67
2018-07-30T09:57:35.122Z,1002.69
2018-07-30T09:58:35.102Z,1002.78
2018-07-30T09:59:35.078Z,1002.71
2018-07-30T10:00:35.052Z,1002.70
2018-07-30T10:01:35.033Z,1002.75
2018-07-30T10:02:35.006Z,1002.84
2018-07-30T10:03:35.031Z,1002.80
2018-07-30T10:04:34.967Z,1002.76
2018-07-30T10:05:34.943Z,1002.73
2018-07-30T10:06:34.997Z,1002.70
2018-07-30T10:07:34.972Z,1002.67
2018-07-30T10:08:34.876Z,1002.63
2018-07-30T10:09:34.859Z,1002.65
2018-07-30T10:10:34.842Z,1002.65
2018-07-30T10:11:34.822Z,1002.69
2018-07-30T10:12:34.795Z,1002.71
2018-07-30T10:13:34.766Z,1002.67
2018-07-30T10:14:34.744Z,1002.70
2018-07-30T10:15:34.722Z,1002.63
2018-07-30T10:16:34.702Z,1002.61
2018-07-30T10:17:34.693Z,1002.65
2018-07-30T10:18:34.666Z,1002.72
2018-07-30T10:19:34.641Z,1002.64
2018-07-30T10:20:34.623Z,1002.73
2018-07-30T10:21:34.592Z,1002.74
2018-07-30T10:22:34.575Z,1002.76
2018-07-30T10:23:34.558Z,1002.75
2018-07-30T10:24:34.579Z,1002.73
2018-07-30T10:25:34.510Z,1002.69
2018-07-30T10:26:34.489Z,1002.74
2018-07-30T10:27:34.462Z,1002.69
2018-07-30T10:28:34.439Z,1002.73
2018-07-30T10:29:34.423Z,1002.68
2018-07-30T10:30:34.438Z,1002.77
2018-07-30T10:31:34.379Z,1002.74
2018-07-30T10:32:34.380Z,1002.76
2018-07-30T10:33:34.327Z,1002.72
2018-07-30T10:34:34.350Z,1002.69
2018-07-30T10:35:34.314Z,1002.71
2018-07-30T10:36:34.268Z,1002.70
2018-07-30T10:37:34.244Z,1002.72
2018-07-30T10:38:34.223Z,1002.72
2018-07-30T10:39:34.202Z,1002.68
2018-07-30T10:40:34.178Z,1002.71
2018-07-30T10:41:34.161Z,1002.73
2018-07-30T10:42:34.134Z,1002.68
2018-07-30T10:43:34.119Z,1002.64
2018-07-30T10:44:34.092Z,1002.70
2018-07-30T10:45:34.068Z,1002.67
2018-07-30T10:46:34.051Z,1002.71
2018-07-30T10:47:34.033Z,1002.62
2018-07-30T10:48:34.000Z,1002.64
2018-07-30T10:49:33.991Z,1002.65
2018-07-30T10:50:33.984Z,1002.60
2018-07-30T10:51:33.942Z,1002.59
2018-07-30T10:52:33.917Z,1002.62
2018-07-30T10:53:33.897Z,1002.69
2018-07-30T10:54:33.879Z,1002.66
2018-07-30T10:55:33.858Z,1002.64
2018-07-30T10:56:33.835Z,1002.58
2018-07-30T10:57:33.808Z,1002.56
2018-07-30T10:58:33.792Z,1002.52
2018-07-30T10:59:33.768Z,1002.54
2018-07-30T11:00:33.748Z,1002.53
2018-07-30T11:01:33.754Z,1002.56
2018-07-30T11:02:33.702Z,1002.52
2018-07-30T11:03:33.677Z,1002.53
2018-07-30T11:04:33.687Z,1002.55
2018-07-30T11:05:33.637Z,1002.48
2018-07-30T11:06:33.636Z,1002.55
2018-07-30T11:07:33.598Z,1002.49
2018-07-30T11:08:33.572Z,1002.51
2018-07-30T11:09:33.552Z,1002.43
2018-07-30T11:10:33.534Z,1002.50
2018-07-30T11:11:33.506Z,1002.49
2018-07-30T11:12:33.484Z,1002.44
2018-07-30T11:13:33.469Z,1002.45
2018-07-30T11:14:33.444Z,1002.43
2018-07-30T11:15:33.423Z,1002.43
2018-07-30T11:16:33.399Z,1002.42
2018-07-30T11:17:33.392Z,1002.42
2018-07-30T11:18:33.372Z,1002.49
2018-07-30T11:19:33.344Z,1002.49
2018-07-30T11:20:33.309Z,1002.49
2018-07-30T11:21:33.303Z,1002.45
2018-07-30T11:22:33.268Z,1002.44
2018-07-30T11:23:33.252Z,1002.47
2018-07-30T11:24:33.237Z,1002.48
2018-07-30T11:25:33.206Z,1002.45
2018-07-30T11:26:33.184Z,1002.43
2018-07-30T11:27:33.165Z,1002.47
2018-07-30T11:28:33.140Z,1002.43
2018-07-30T11:29:33.124Z,1002.41
2018-07-30T11:30:33.098Z,1002.38
2018-07-30T11:31:33.081Z,1002.43
2018-07-30T11:32:33.058Z,1002.39
2018-07-30T11:33:33.049Z,1002.42
2018-07-30T11:34:33.045Z,1002.44
2018-07-30T11:35:32.992Z,1002.40
2018-07-30T11:36:32.972Z,1002.45
2018-07-30T11:37:32.950Z,1002.45
2018-07-30T11:38:32.929Z,1002.43
2018-07-30T11:39:32.905Z,1002.46
2018-07-30T11:40:32.889Z,1002.41
2018-07-30T11:41:32.862Z,1002.38
2018-07-30T11:42:32.844Z,1002.40
2018-07-30T11:43:32.862Z,1002.37
2018-07-30T11:44:32.798Z,1002.36
2018-07-30T11:45:32.782Z,1002.38
2018-07-30T11:46:32.762Z,1002.34
2018-07-30T11:47:32.753Z,1002.28
2018-07-30T11:48:32.838Z,1002.31
2018-07-30T11:49:32.733Z,1002.30
2018-07-30T11:50:32.672Z,1002.30
2018-07-30T11:51:32.653Z,1002.30
2018-07-30T11:52:32.629Z,1002.27
2018-07-30T11:53:32.616Z,1002.28
2018-07-30T11:54:32.660Z,1002.24
2018-07-30T11:55:32.570Z,1002.24
2018-07-30T11:56:32.545Z,1002.28
2018-07-30T11:57:32.531Z,1002.25
2018-07-30T11:58:32.509Z,1002.31
2018-07-30T11:59:32.484Z,1002.33
2018-07-30T12:00:32.467Z,1002.33
2018-07-30T12:01:32.441Z,1002.31
2018-07-30T12:02:32.425Z,1002.29
2018-07-30T12:03:32.402Z,1002.29
2018-07-30T12:04:32.386Z,1002.28
2018-07-30T12:05:32.360Z,1002.24